Time;durP1;ratioP1;P1;durP2;ratioP2;P2;SDS_P1;SDS_P2;PMS_P1;PMS_P2;Temp;Humidity;BMP_temperature;BMP_pressure;BME280_temperature;BME280_humidity;BME280_pressure;Samples;Min_cycle;Max_cycle;Signal;HPM_P1;HPM_P2
2023/06/03 00:02:49;;;;;;;;;;;20.20;60.50;;;;;;6317765;28;19963;-70
2023/06/03 00:05:49;;;;;;;;;;;20.20;60.50;;;;;;6316919;28;19917;-71
2023/06/03 00:08:50;;;;;;;;;;;20.20;60.50;;;;;;6317019;28;19947;-71
2023/06/03 00:11:51;;;;;;;;;;;20.20;60.40;;;;;;6317634;28;19909;-70
2023/06/03 00:14:51;;;;;;;;;;;20.20;60.50;;;;;;6316985;28;19908;-70
2023/06/03 00:17:52;;;;;;;;;;;20.20;60.50;;;;;;6317424;28;19931;-70
2023/06/03 00:20:52;;;;;;;;;;;20.20;60.50;;;;;;6315231;28;19923;-70
2023/06/03 00:23:53;;;;;;;;;;;20.20;60.50;;;;;;6317116;28;20011;-71
2023/06/03 00:26:54;;;;;;;;;;;20.20;60.50;;;;;;6318036;28;19969;-70
2023/06/03 00:29:54;;;;;;;;;;;20.10;60.40;;;;;;6321443;28;20451;-70
2023/06/03 00:32:55;;;;;;;;;;;20.20;60.50;;;;;;6321397;28;19916;-70
2023/06/03 00:35:55;;;;;;;;;;;20.20;60.50;;;;;;6320367;28;19912;-71
2023/06/03 00:38:56;;;;;;;;;;;20.10;60.40;;;;;;6296196;28;19909;-70
2023/06/03 00:41:57;;;;;;;;;;;20.20;60.50;;;;;;6311670;28;19919;-70
2023/06/03 00:44:57;;;;;;;;;;;20.10;60.40;;;;;;6321555;28;20379;-71
2023/06/03 00:47:58;;;;;;;;;;;20.20;60.60;;;;;;6317531;28;19962;-70
2023/06/03 00:50:58;;;;;;;;;;;20.20;60.50;;;;;;6320751;28;20351;-70
2023/06/03 00:53:59;;;;;;;;;;;20.10;60.40;;;;;;6321032;28;19999;-71
2023/06/03 00:57:01;;;;;;;;;;;20.20;60.50;;;;;;6321355;28;19926;-71
2023/06/03 01:00:02;;;;;;;;;;;20.20;60.40;;;;;;6320550;28;20374;-70
2023/06/03 01:03:03;;;;;;;;;;;20.20;60.50;;;;;;6320579;28;19927;-70
2023/06/03 01:06:14;;;;;;;;;;;20.20;60.40;;;;;;6319680;28;19917;-71
2023/06/03 01:09:38;;;;;;;;;;;20.20;60.40;;;;;;6320645;28;20374;-71
2023/06/03 01:12:41;;;;;;;;;;;20.10;60.40;;;;;;6275278;28;19915;-70
2023/06/03 01:15:43;;;;;;;;;;;20.20;60.40;;;;;;6294538;28;19908;-70
2023/06/03 01:18:44;;;;;;;;;;;20.20;60.40;;;;;;6320522;28;19939;-70
2023/06/03 01:21:47;;;;;;;;;;;20.20;60.40;;;;;;6320533;28;20384;-70
2023/06/03 01:24:50;;;;;;;;;;;20.20;60.40;;;;;;6320307;28;19920;-70
2023/06/03 01:27:50;;;;;;;;;;;20.20;60.50;;;;;;6320243;28;20366;-70
2023/06/03 01:30:51;;;;;;;;;;;20.20;60.40;;;;;;6319649;28;19953;-70
2023/06/03 01:33:52;;;;;;;;;;;20.20;60.50;;;;;;6320267;28;19909;-70
2023/06/03 01:36:53;;;;;;;;;;;20.20;60.50;;;;;;6317422;28;19916;-70
2023/06/03 01:39:54;;;;;;;;;;;20.20;60.50;;;;;;6319824;28;19912;-70
2023/06/03 01:42:55;;;;;;;;;;;20.20;60.50;;;;;;6319524;28;20299;-70
2023/06/03 01:45:55;;;;;;;;;;;20.20;60.50;;;;;;6319933;28;19916;-70
2023/06/03 01:48:56;;;;;;;;;;;20.10;60.40;;;;;;6319499;28;19908;-71
2023/06/03 01:52:00;;;;;;;;;;;20.20;60.50;;;;;;6319382;28;19908;-70
2023/06/03 01:55:00;;;;;;;;;;;20.20;60.50;;;;;;6319508;28;19912;-70
2023/06/03 01:58:02;;;;;;;;;;;20.20;60.50;;;;;;6319660;28;19954;-70
2023/06/03 02:01:02;;;;;;;;;;;20.10;60.50;;;;;;6319235;28;19915;-70
2023/06/03 02:04:03;;;;;;;;;;;20.10;60.50;;;;;;6319142;28;19950;-70
2023/06/03 02:07:03;;;;;;;;;;;20.20;60.50;;;;;;6319245;28;20310;-70
2023/06/03 02:10:04;;;;;;;;;;;20.20;60.50;;;;;;6319565;28;20007;-70
2023/06/03 02:13:05;;;;;;;;;;;20.10;60.40;;;;;;6318850;28;20002;-71
2023/06/03 02:16:05;;;;;;;;;;;20.20;60.50;;;;;;6319183;28;19908;-70
2023/06/03 02:19:15;;;;;;;;;;;20.20;60.50;;;;;;6318961;28;20352;-71
2023/06/03 02:22:15;;;;;;;;;;;20.10;60.40;;;;;;6318674;28;20193;-71
2023/06/03 02:25:16;;;;;;;;;;;20.10;60.50;;;;;;6318851;28;19916;-70
2023/06/03 02:28:16;;;;;;;;;;;20.20;60.50;;;;;;6318618;28;19947;-70
2023/06/03 02:31:17;;;;;;;;;;;20.20;60.50;;;;;;6318332;28;20374;-70
2023/06/03 02:34:18;;;;;;;;;;;20.10;60.50;;;;;;6318268;28;19908;-70
2023/06/03 02:37:18;;;;;;;;;;;20.10;60.40;;;;;;6307969;28;19912;-70
2023/06/03 02:40:19;;;;;;;;;;;20.20;60.60;;;;;;6317354;28;19908;-70
2023/06/03 02:43:19;;;;;;;;;;;20.10;60.50;;;;;;6316972;28;19931;-70
2023/06/03 02:46:20;;;;;;;;;;;20.10;60.50;;;;;;6317989;28;19940;-71
2023/06/03 02:49:20;;;;;;;;;;;20.20;60.60;;;;;;6318425;28;20366;-70
2023/06/03 02:52:22;;;;;;;;;;;20.10;60.40;;;;;;6318080;28;19962;-70
2023/06/03 02:55:23;;;;;;;;;;;20.10;60.50;;;;;;6318293;28;19912;-70
2023/06/03 02:58:24;;;;;;;;;;;20.20;60.60;;;;;;6318213;28;19911;-70
2023/06/03 03:01:25;;;;;;;;;;;20.10;60.50;;;;;;6318109;28;19995;-70
2023/06/03 03:04:26;;;;;;;;;;;20.10;60.50;;;;;;6317311;28;20393;-71
2023/06/03 03:07:27;;;;;;;;;;;20.10;60.50;;;;;;6318490;28;19912;-70
2023/06/03 03:10:27;;;;;;;;;;;20.10;60.50;;;;;;6317822;28;20287;-70
2023/06/03 03:13:28;;;;;;;;;;;20.10;60.50;;;;;;6317823;28;19908;-71
2023/06/03 03:16:28;;;;;;;;;;;20.10;60.50;;;;;;6318034;28;19908;-70
2023/06/03 03:19:29;;;;;;;;;;;20.10;60.50;;;;;;6317352;28;20536;-70
2023/06/03 03:22:30;;;;;;;;;;;20.10;60.50;;;;;;6317778;28;20294;-70
2023/06/03 03:25:31;;;;;;;;;;;20.10;60.50;;;;;;6317254;28;19924;-70
2023/06/03 03:28:31;;;;;;;;;;;20.10;60.50;;;;;;6317686;28;19912;-70
2023/06/03 03:31:32;;;;;;;;;;;20.10;60.50;;;;;;6317605;28;19954;-70
2023/06/03 03:34:36;;;;;;;;;;;20.10;60.50;;;;;;6315708;28;20003;-70
2023/06/03 03:37:37;;;;;;;;;;;20.10;60.40;;;;;;6302081;28;19913;-70
2023/06/03 03:40:38;;;;;;;;;;;20.10;60.50;;;;;;6313889;28;20294;-71
2023/06/03 03:43:39;;;;;;;;;;;20.10;60.50;;;;;;6317542;28;19920;-70
2023/06/03 03:46:40;;;;;;;;;;;20.10;60.50;;;;;;6316076;28;19920;-70
2023/06/03 03:49:41;;;;;;;;;;;20.10;60.50;;;;;;6317788;28;19915;-71
2023/06/03 03:52:41;;;;;;;;;;;20.10;60.50;;;;;;6317350;28;20349;-70
2023/06/03 03:55:46;;;;;;;;;;;20.10;60.50;;;;;;6317089;28;20008;-71
2023/06/03 03:58:47;;;;;;;;;;;20.10;60.50;;;;;;6317813;28;19955;-71
2023/06/03 04:01:47;;;;;;;;;;;20.10;60.50;;;;;;6317848;28;20277;-70
2023/06/03 04:04:48;;;;;;;;;;;20.10;60.50;;;;;;6322030;28;20298;-70
2023/06/03 04:07:49;;;;;;;;;;;20.10;60.50;;;;;;6321772;28;19915;-70
2023/06/03 04:10:49;;;;;;;;;;;20.10;60.50;;;;;;6321872;28;20057;-70
2023/06/03 04:13:50;;;;;;;;;;;20.10;61.40;;;;;;6321812;28;19915;-71
2023/06/03 04:16:57;;;;;;;;;;;20.10;60.50;;;;;;6321677;28;19911;-71
2023/06/03 04:19:59;;;;;;;;;;;20.10;60.50;;;;;;6321926;28;20267;-71
2023/06/03 04:23:03;;;;;;;;;;;20.10;60.50;;;;;;6321923;28;20346;-71
2023/06/03 04:26:03;;;;;;;;;;;20.10;60.50;;;;;;6320955;28;19972;-71
2023/06/03 04:29:04;;;;;;;;;;;20.10;60.40;;;;;;6321398;28;19916;-70
2023/06/03 04:32:05;;;;;;;;;;;20.10;60.50;;;;;;6321149;28;19919;-70
2023/06/03 04:35:05;;;;;;;;;;;20.10;60.40;;;;;;6321708;28;19943;-71
2023/06/03 04:38:06;;;;;;;;;;;20.10;60.50;;;;;;6301892;28;19913;-71
2023/06/03 04:41:10;;;;;;;;;;;20.10;60.50;;;;;;6313556;28;20061;-71
2023/06/03 04:44:11;;;;;;;;;;;20.10;60.50;;;;;;6321289;28;19920;-70
2023/06/03 04:47:11;;;;;;;;;;;20.10;61.30;;;;;;6321225;28;19958;-70
2023/06/03 04:50:19;;;;;;;;;;;20.10;60.50;;;;;;6321102;28;19915;-70
2023/06/03 04:53:20;;;;;;;;;;;20.10;60.50;;;;;;6321046;28;20367;-70
2023/06/03 04:56:21;;;;;;;;;;;20.10;60.50;;;;;;6321186;28;20683;-70
2023/06/03 04:59:22;;;;;;;;;;;20.10;60.50;;;;;;6267230;28;20015;-71
2023/06/03 05:02:23;;;;;;;;;;;20.10;60.50;;;;;;6252895;28;19925;-70
2023/06/03 05:05:24;;;;;;;;;;;20.10;61.30;;;;;;6250263;28;19924;-70
2023/06/03 05:08:25;;;;;;;;;;;20.10;60.50;;;;;;6267497;28;20047;-70
2023/06/03 05:11:25;;;;;;;;;;;20.10;60.50;;;;;;6267112;28;19913;-71
2023/06/03 05:14:26;;;;;;;;;;;20.10;60.50;;;;;;6267101;28;19964;-70
2023/06/03 05:17:26;;;;;;;;;;;20.10;60.50;;;;;;6266739;28;19909;-71
2023/06/03 05:20:27;;;;;;;;;;;20.10;60.50;;;;;;6250442;28;19915;-71
2023/06/03 05:23:28;;;;;;;;;;;20.10;60.50;;;;;;6266532;28;20010;-71
2023/06/03 05:26:28;;;;;;;;;;;20.10;60.50;;;;;;6266886;28;19908;-71
2023/06/03 05:29:29;;;;;;;;;;;20.10;60.50;;;;;;6282835;28;19909;-71
2023/06/03 05:32:29;;;;;;;;;;;20.10;60.50;;;;;;6319797;28;19912;-71
2023/06/03 05:35:30;;;;;;;;;;;20.10;60.50;;;;;;6319906;28;19918;-70
2023/06/03 05:38:31;;;;;;;;;;;20.10;60.50;;;;;;6296975;28;19995;-70
2023/06/03 05:41:33;;;;;;;;;;;20.10;60.50;;;;;;6306634;28;19912;-71
2023/06/03 05:44:33;;;;;;;;;;;20.10;60.50;;;;;;6318265;28;19916;-70
2023/06/03 05:47:34;;;;;;;;;;;20.10;60.50;;;;;;6318547;28;19916;-70
2023/06/03 05:50:36;;;;;;;;;;;20.10;60.50;;;;;;6319346;28;20011;-70
2023/06/03 05:53:38;;;;;;;;;;;20.10;60.50;;;;;;6318761;28;20415;-70
2023/06/03 05:56:38;;;;;;;;;;;20.10;60.50;;;;;;6319415;28;19908;-70
2023/06/03 05:59:39;;;;;;;;;;;20.10;60.50;;;;;;6319513;28;19931;-70
2023/06/03 06:02:40;;;;;;;;;;;20.10;60.50;;;;;;6319063;28;20024;-71
2023/06/03 06:05:40;;;;;;;;;;;20.10;60.50;;;;;;6319086;28;19927;-70
2023/06/03 06:08:42;;;;;;;;;;;20.10;60.50;;;;;;6318520;28;19912;-70
2023/06/03 06:11:43;;;;;;;;;;;20.10;60.50;;;;;;6318931;28;19912;-70
2023/06/03 06:14:43;;;;;;;;;;;20.10;60.50;;;;;;6319093;28;20347;-70
2023/06/03 06:17:44;;;;;;;;;;;20.10;60.50;;;;;;6318808;28;20093;-70
2023/06/03 06:20:48;;;;;;;;;;;20.10;60.50;;;;;;6318763;28;19919;-70
2023/06/03 06:23:48;;;;;;;;;;;20.10;60.50;;;;;;6318784;28;19920;-70
2023/06/03 06:26:49;;;;;;;;;;;20.10;60.50;;;;;;6317907;28;19978;-70
2023/06/03 06:29:51;;;;;;;;;;;20.10;60.50;;;;;;6318314;28;19916;-70
2023/06/03 06:32:52;;;;;;;;;;;20.10;60.50;;;;;;6318357;28;19998;-71
2023/06/03 06:35:52;;;;;;;;;;;20.10;60.50;;;;;;6318432;28;20618;-71
2023/06/03 06:38:53;;;;;;;;;;;20.10;60.50;;;;;;6318396;28;19912;-70
2023/06/03 06:41:54;;;;;;;;;;;20.10;60.50;;;;;;6318569;28;19912;-70
2023/06/03 06:44:55;;;;;;;;;;;20.10;60.50;;;;;;6318107;28;20370;-70
2023/06/03 06:48:05;;;;;;;;;;;20.10;60.50;;;;;;6318816;28;20252;-70
2023/06/03 06:51:06;;;;;;;;;;;20.10;60.50;;;;;;6318112;28;19919;-70
2023/06/03 06:54:07;;;;;;;;;;;20.10;60.50;;;;;;6316701;28;20334;-70
2023/06/03 06:57:07;;;;;;;;;;;20.10;60.50;;;;;;6318725;28;19939;-70
2023/06/03 07:00:08;;;;;;;;;;;20.10;60.50;;;;;;6317943;28;19915;-70
2023/06/03 07:03:10;;;;;;;;;;;20.10;60.50;;;;;;6317784;28;20297;-70
2023/06/03 07:06:10;;;;;;;;;;;20.10;60.50;;;;;;6316829;28;20012;-71
2023/06/03 07:09:11;;;;;;;;;;;20.10;60.50;;;;;;6317918;28;19912;-70
2023/06/03 07:12:11;;;;;;;;;;;20.10;60.50;;;;;;6318458;28;20023;-70
2023/06/03 07:15:12;;;;;;;;;;;20.10;60.50;;;;;;6318385;28;20329;-71
2023/06/03 07:18:12;;;;;;;;;;;20.10;60.50;;;;;;6317694;28;19908;-70
2023/06/03 07:21:15;;;;;;;;;;;20.10;60.50;;;;;;6317798;28;20012;-70
2023/06/03 07:24:16;;;;;;;;;;;20.10;60.50;;;;;;6317674;28;19916;-70
2023/06/03 07:27:22;;;;;;;;;;;20.10;60.40;;;;;;6317637;28;19951;-71
2023/06/03 07:30:22;;;;;;;;;;;20.10;60.50;;;;;;6317657;28;19912;-70
2023/06/03 07:33:29;;;;;;;;;;;20.10;60.50;;;;;;6317449;28;20394;-70
2023/06/03 07:36:30;;;;;;;;;;;20.10;60.50;;;;;;6319502;28;20358;-70
2023/06/03 07:39:31;;;;;;;;;;;20.10;60.40;;;;;;6322908;28;19915;-70
2023/06/03 07:42:32;;;;;;;;;;;20.10;60.50;;;;;;6322706;28;19908;-70
2023/06/03 07:45:32;;;;;;;;;;;20.10;60.50;;;;;;6322600;28;20174;-70
2023/06/03 07:48:33;;;;;;;;;;;20.10;60.50;;;;;;6322687;28;20304;-70
2023/06/03 07:51:34;;;;;;;;;;;20.10;60.50;;;;;;6322371;28;19955;-70
2023/06/03 07:54:35;;;;;;;;;;;20.10;60.50;;;;;;6322214;28;20327;-71
2023/06/03 07:57:38;;;;;;;;;;;20.10;60.40;;;;;;6322760;28;20374;-70
2023/06/03 08:00:42;;;;;;;;;;;20.10;60.50;;;;;;6321857;28;20015;-71
2023/06/03 08:03:42;;;;;;;;;;;20.10;60.50;;;;;;6321941;28;19920;-70
2023/06/03 08:06:44;;;;;;;;;;;20.10;60.40;;;;;;6322081;28;19993;-71
2023/06/03 08:09:46;;;;;;;;;;;20.10;60.40;;;;;;6322053;28;19919;-70
2023/06/03 08:12:46;;;;;;;;;;;20.10;60.40;;;;;;6321850;28;19915;-70
2023/06/03 08:15:48;;;;;;;;;;;20.10;60.40;;;;;;6321776;28;19947;-71
2023/06/03 08:18:50;;;;;;;;;;;20.10;60.50;;;;;;6321702;28;19912;-71
2023/06/03 08:21:51;;;;;;;;;;;20.10;60.50;;;;;;6321530;28;20310;-70
2023/06/03 08:24:52;;;;;;;;;;;20.10;60.40;;;;;;6321339;28;20317;-70
2023/06/03 08:27:52;;;;;;;;;;;20.10;60.50;;;;;;6321608;28;19964;-70
2023/06/03 08:30:53;;;;;;;;;;;20.10;60.40;;;;;;6321125;28;20286;-70
2023/06/03 08:33:53;;;;;;;;;;;20.10;60.40;;;;;;6321926;28;19955;-70
2023/06/03 08:36:54;;;;;;;;;;;20.10;60.50;;;;;;6306961;28;19917;-70
2023/06/03 08:39:54;;;;;;;;;;;20.10;60.50;;;;;;6322034;28;19912;-70
2023/06/03 08:42:59;;;;;;;;;;;20.10;60.40;;;;;;6336059;28;20294;-71
2023/06/03 08:46:05;;;;;;;;;;;20.10;60.40;;;;;;6320118;28;19920;-71
2023/06/03 08:49:08;;;;;;;;;;;20.10;60.40;;;;;;6331087;28;19953;-70
2023/06/03 08:52:10;;;;;;;;;;;20.10;59.80;;;;;;6323043;28;19908;-70
2023/06/03 08:55:12;;;;;;;;;;;20.10;59.20;;;;;;6312150;28;20370;-70
2023/06/03 08:58:38;;;;;;;;;;;20.10;59.10;;;;;;6330877;28;20065;-70
2023/06/03 09:01:40;;;;;;;;;;;20.10;58.10;;;;;;6304645;28;19912;-70
2023/06/03 09:04:41;;;;;;;;;;;20.10;58.20;;;;;;6330993;28;19975;-69
2023/06/03 09:07:43;;;;;;;;;;;20.10;58.20;;;;;;6325207;28;19914;-70
2023/06/03 09:10:45;;;;;;;;;;;20.10;57.90;;;;;;6326116;28;19918;-69
2023/06/03 09:13:46;;;;;;;;;;;20.10;57.80;;;;;;6329740;28;19960;-70
2023/06/03 09:16:47;;;;;;;;;;;20.10;57.80;;;;;;6319903;28;19915;-70
2023/06/03 09:19:47;;;;;;;;;;;20.10;57.60;;;;;;6331102;28;20384;-70
2023/06/03 09:22:48;;;;;;;;;;;20.20;58.20;;;;;;6315153;28;19915;-70
2023/06/03 09:25:49;;;;;;;;;;;20.10;58.50;;;;;;6323060;27;19920;-70
2023/06/03 09:28:49;;;;;;;;;;;20.10;58.70;;;;;;6327830;28;19915;-70
2023/06/03 09:31:50;;;;;;;;;;;20.10;59.00;;;;;;6319254;28;19948;-71
2023/06/03 09:34:51;;;;;;;;;;;20.10;59.10;;;;;;6327503;28;20386;-70
2023/06/03 09:38:01;;;;;;;;;;;20.10;59.00;;;;;;6302193;28;19915;-70
2023/06/03 09:41:13;;;;;;;;;;;20.10;58.90;;;;;;6315396;28;20332;-71
2023/06/03 09:44:14;;;;;;;;;;;20.10;58.80;;;;;;6342661;28;20184;-71
2023/06/03 09:47:15;;;;;;;;;;;20.10;58.20;;;;;;6318727;28;20278;-71
2023/06/03 09:50:16;;;;;;;;;;;20.10;57.80;;;;;;6305221;28;20010;-71
2023/06/03 09:53:19;;;;;;;;;;;20.20;57.30;;;;;;6319359;28;20325;-70
2023/06/03 09:56:25;;;;;;;;;;;20.10;57.60;;;;;;6319304;28;20007;-71
2023/06/03 09:59:25;;;;;;;;;;;20.10;57.70;;;;;;6319193;28;19912;-70
2023/06/03 10:02:26;;;;;;;;;;;20.10;57.70;;;;;;6319432;28;19950;-71
2023/06/03 10:05:30;;;;;;;;;;;20.10;58.00;;;;;;6319420;28;19926;-70
2023/06/03 10:08:30;;;;;;;;;;;20.10;58.30;;;;;;6319973;28;19912;-71
2023/06/03 10:11:44;;;;;;;;;;;20.10;58.50;;;;;;6318581;28;20016;-71
2023/06/03 10:14:45;;;;;;;;;;;20.10;58.60;;;;;;6319251;28;19915;-70
2023/06/03 10:17:46;;;;;;;;;;;20.10;58.70;;;;;;6317450;28;19912;-71
2023/06/03 10:20:46;;;;;;;;;;;20.10;58.80;;;;;;6318899;28;19966;-70
2023/06/03 10:23:47;;;;;;;;;;;20.10;58.90;;;;;;6318813;28;20264;-70
2023/06/03 10:26:48;;;;;;;;;;;20.10;58.90;;;;;;6318956;28;19944;-70
2023/06/03 10:29:55;;;;;;;;;;;20.10;59.00;;;;;;6318330;28;19912;-70
2023/06/03 10:32:57;;;;;;;;;;;20.10;59.10;;;;;;6293368;28;20436;-70
2023/06/03 10:35:59;;;;;;;;;;;20.10;59.10;;;;;;6302098;28;19912;-70
2023/06/03 10:39:05;;;;;;;;;;;20.10;59.20;;;;;;6318552;28;20351;-70
2023/06/03 10:42:06;;;;;;;;;;;20.10;59.20;;;;;;6318421;28;19914;-70
2023/06/03 10:45:07;;;;;;;;;;;20.10;59.30;;;;;;6318273;28;19924;-71
2023/06/03 10:48:15;;;;;;;;;;;20.10;59.30;;;;;;6318643;28;19978;-71
2023/06/03 10:51:23;;;;;;;;;;;20.10;59.30;;;;;;6317976;28;19961;-71
2023/06/03 10:54:33;;;;;;;;;;;20.10;59.50;;;;;;6318721;28;20362;-70
2023/06/03 10:57:39;;;;;;;;;;;20.10;59.40;;;;;;6316628;28;19908;-71
2023/06/03 11:00:51;;;;;;;;;;;20.10;59.40;;;;;;6318387;28;20015;-71
2023/06/03 11:03:52;;;;;;;;;;;20.10;59.50;;;;;;6318000;28;20365;-70
2023/06/03 11:06:53;;;;;;;;;;;20.10;59.50;;;;;;6317668;28;19912;-70
2023/06/03 11:09:54;;;;;;;;;;;20.10;59.50;;;;;;6317519;28;19912;-71
2023/06/03 11:12:55;;;;;;;;;;;20.10;59.60;;;;;;6317651;28;19951;-70
2023/06/03 11:16:02;;;;;;;;;;;20.10;59.60;;;;;;6317956;28;20423;-71
2023/06/03 11:19:22;;;;;;;;;;;20.10;59.60;;;;;;6317831;28;20431;-70
2023/06/03 11:22:28;;;;;;;;;;;20.10;59.60;;;;;;6317813;28;19912;-70
2023/06/03 11:25:29;;;;;;;;;;;20.10;59.70;;;;;;6317655;28;20015;-70
2023/06/03 11:28:30;;;;;;;;;;;20.10;59.70;;;;;;6316429;28;19994;-70
2023/06/03 11:31:32;;;;;;;;;;;20.10;59.70;;;;;;6317848;28;19916;-71
2023/06/03 11:34:33;;;;;;;;;;;20.10;59.70;;;;;;6317886;28;19908;-71
2023/06/03 11:37:40;;;;;;;;;;;20.10;59.70;;;;;;6316518;28;19994;-70
2023/06/03 11:40:44;;;;;;;;;;;20.10;59.70;;;;;;6317406;28;19912;-70
2023/06/03 11:44:04;;;;;;;;;;;20.10;59.80;;;;;;6317520;28;19924;-70
2023/06/03 11:47:05;;;;;;;;;;;20.10;59.70;;;;;;6317200;28;19908;-70
2023/06/03 11:50:06;;;;;;;;;;;20.10;59.70;;;;;;6296932;28;19919;-70
2023/06/03 11:53:06;;;;;;;;;;;20.10;59.70;;;;;;6315140;28;19909;-71
2023/06/03 11:56:11;;;;;;;;;;;20.10;59.70;;;;;;6318372;28;19916;-70
2023/06/03 11:59:13;;;;;;;;;;;20.10;59.70;;;;;;6317132;28;19916;-70
2023/06/03 12:02:13;;;;;;;;;;;20.10;59.80;;;;;;6328444;28;20406;-71
2023/06/03 12:05:17;;;;;;;;;;;20.10;59.80;;;;;;6319132;28;19916;-70
2023/06/03 12:08:18;;;;;;;;;;;20.10;59.80;;;;;;6319152;28;20023;-70
2023/06/03 12:11:29;;;;;;;;;;;20.10;59.80;;;;;;6316326;28;19908;-71
2023/06/03 12:14:32;;;;;;;;;;;20.10;59.80;;;;;;6317707;28;20148;-70
2023/06/03 12:17:33;;;;;;;;;;;20.10;59.80;;;;;;6333645;28;19915;-70
2023/06/03 12:20:34;;;;;;;;;;;20.10;59.90;;;;;;6317099;28;20281;-71
2023/06/03 12:23:35;;;;;;;;;;;20.10;59.90;;;;;;6317924;28;19951;-70
2023/06/03 12:26:37;;;;;;;;;;;20.10;59.60;;;;;;6336283;28;19908;-71
2023/06/03 12:29:45;;;;;;;;;;;20.10;58.40;;;;;;6321844;28;20434;-71
2023/06/03 12:32:49;;;;;;;;;;;20.10;56.40;;;;;;6320102;28;19908;-70
2023/06/03 12:35:53;;;;;;;;;;;20.10;55.50;;;;;;6328048;28;20011;-70
2023/06/03 12:38:58;;;;;;;;;;;20.10;55.30;;;;;;6312865;28;19908;-70
2023/06/03 12:42:00;;;;;;;;;;;20.00;54.10;;;;;;6340213;28;19911;-70
2023/06/03 12:45:00;;;;;;;;;;;20.10;54.80;;;;;;6320764;28;19924;-70
2023/06/03 12:48:01;;;;;;;;;;;20.10;54.10;;;;;;6337737;28;19912;-71
2023/06/03 12:51:01;;;;;;;;;;;20.10;54.60;;;;;;6328065;28;19915;-70
2023/06/03 12:54:05;;;;;;;;;;;20.10;53.70;;;;;;6338146;28;19925;-70
2023/06/03 12:57:06;;;;;;;;;;;20.10;53.40;;;;;;6331919;28;20420;-71
2023/06/03 13:00:16;;;;;;;;;;;20.00;53.90;;;;;;6320324;28;19912;-70
2023/06/03 13:03:16;;;;;;;;;;;20.10;52.40;;;;;;6325112;28;19928;-71
2023/06/03 13:06:17;;;;;;;;;;;20.10;52.30;;;;;;6327621;28;20488;-71
2023/06/03 13:09:17;;;;;;;;;;;20.10;51.30;;;;;;6329703;28;19912;-71
2023/06/03 13:12:18;;;;;;;;;;;20.10;51.50;;;;;;6335190;28;20282;-71
2023/06/03 13:15:18;;;;;;;;;;;20.10;51.50;;;;;;6321127;28;19962;-69
2023/06/03 13:18:19;;;;;;;;;;;20.10;51.80;;;;;;6336566;28;20357;-71
2023/06/03 13:21:19;;;;;;;;;;;20.10;52.50;;;;;;6324614;28;19907;-71
2023/06/03 13:24:20;;;;;;;;;;;20.10;53.50;;;;;;6331344;28;19947;-71
2023/06/03 13:27:21;;;;;;;;;;;20.10;54.10;;;;;;6331147;28;19919;-70
2023/06/03 13:30:21;;;;;;;;;;;20.10;54.60;;;;;;6323205;28;19914;-70
2023/06/03 13:33:22;;;;;;;;;;;20.10;55.00;;;;;;6334377;28;20378;-71
2023/06/03 13:36:22;;;;;;;;;;;20.10;55.30;;;;;;6318190;28;19912;-71
2023/06/03 13:39:24;;;;;;;;;;;20.10;55.80;;;;;;6332862;28;20143;-71
2023/06/03 13:42:24;;;;;;;;;;;20.10;56.00;;;;;;6344401;28;19907;-71
2023/06/03 13:45:25;;;;;;;;;;;20.00;56.20;;;;;;6322902;28;20048;-71
2023/06/03 13:48:25;;;;;;;;;;;20.10;56.50;;;;;;6334158;28;20163;-71
2023/06/03 13:51:26;;;;;;;;;;;20.10;56.70;;;;;;6319257;28;19915;-70
2023/06/03 13:54:26;;;;;;;;;;;20.00;56.70;;;;;;6331700;28;20404;-70
2023/06/03 13:57:27;;;;;;;;;;;20.10;56.90;;;;;;6326692;28;19908;-70
2023/06/03 14:00:27;;;;;;;;;;;20.10;57.10;;;;;;6325894;28;19908;-70
2023/06/03 14:03:28;;;;;;;;;;;20.10;57.30;;;;;;6333094;28;19923;-71
2023/06/03 14:06:28;;;;;;;;;;;20.00;57.30;;;;;;6319189;28;19927;-71
2023/06/03 14:09:29;;;;;;;;;;;20.00;57.40;;;;;;6333175;28;19912;-70
2023/06/03 14:12:30;;;;;;;;;;;20.10;57.60;;;;;;6324991;28;19959;-71
2023/06/03 14:15:30;;;;;;;;;;;20.00;57.60;;;;;;6327301;28;20467;-71
2023/06/03 14:18:31;;;;;;;;;;;20.10;57.70;;;;;;6332452;28;19938;-70
2023/06/03 14:21:31;;;;;;;;;;;20.00;57.70;;;;;;6318597;28;20055;-70
2023/06/03 14:24:32;;;;;;;;;;;20.10;57.90;;;;;;6332775;28;19920;-71
2023/06/03 14:27:32;;;;;;;;;;;20.10;57.90;;;;;;6322722;28;19907;-70
2023/06/03 14:30:33;;;;;;;;;;;20.10;58.00;;;;;;6328874;28;19912;-71
2023/06/03 14:33:33;;;;;;;;;;;20.10;58.70;;;;;;6330039;28;19915;-70
2023/06/03 14:36:34;;;;;;;;;;;20.10;58.10;;;;;;6314737;28;19914;-71
2023/06/03 14:39:35;;;;;;;;;;;20.00;58.10;;;;;;6327479;28;19915;-71
2023/06/03 14:42:35;;;;;;;;;;;20.10;58.20;;;;;;6320639;28;19908;-70
2023/06/03 14:45:36;;;;;;;;;;;20.10;58.30;;;;;;6311367;28;19923;-71
2023/06/03 14:48:36;;;;;;;;;;;20.10;58.30;;;;;;6328143;28;20309;-70
2023/06/03 14:51:37;;;;;;;;;;;20.10;58.40;;;;;;6322067;28;19970;-71
2023/06/03 14:54:37;;;;;;;;;;;20.10;58.40;;;;;;6332232;28;20036;-71
2023/06/03 14:57:38;;;;;;;;;;;20.00;58.30;;;;;;6319125;28;19919;-71
2023/06/03 15:00:38;;;;;;;;;;;20.00;58.40;;;;;;6332057;28;20320;-71
2023/06/03 15:03:39;;;;;;;;;;;20.10;58.50;;;;;;6317066;28;19972;-70
2023/06/03 15:06:43;;;;;;;;;;;20.10;58.60;;;;;;6317468;28;20393;-70
2023/06/03 15:09:43;;;;;;;;;;;20.10;58.60;;;;;;6333381;28;20377;-70
2023/06/03 15:12:44;;;;;;;;;;;20.10;58.60;;;;;;6318727;28;19978;-70
2023/06/03 15:15:44;;;;;;;;;;;20.10;58.70;;;;;;6332675;28;19908;-70
2023/06/03 15:18:45;;;;;;;;;;;20.00;58.40;;;;;;6325805;28;20385;-70
2023/06/03 15:21:45;;;;;;;;;;;20.00;57.20;;;;;;6326243;28;19961;-70
2023/06/03 15:24:46;;;;;;;;;;;20.10;56.10;;;;;;6332488;28;19923;-70
2023/06/03 15:27:46;;;;;;;;;;;20.10;55.90;;;;;;6318916;28;19920;-71
2023/06/03 15:30:47;;;;;;;;;;;20.10;56.30;;;;;;6320845;28;20310;-72
2023/06/03 15:33:47;;;;;;;;;;;20.10;55.60;;;;;;6321562;28;19998;-71
2023/06/03 15:36:48;;;;;;;;;;;20.10;55.80;;;;;;6319250;28;19912;-71
2023/06/03 15:39:48;;;;;;;;;;;20.10;54.30;;;;;;6312289;28;19969;-71
2023/06/03 15:42:49;;;;;;;;;;;20.10;53.40;;;;;;6318478;28;19912;-71
2023/06/03 15:45:49;;;;;;;;;;;20.10;53.40;;;;;;6330430;28;19924;-70
2023/06/03 15:48:50;;;;;;;;;;;20.10;53.40;;;;;;6319092;28;19954;-70
2023/06/03 15:51:50;;;;;;;;;;;20.10;53.70;;;;;;6320782;28;19908;-70
2023/06/03 15:54:51;;;;;;;;;;;20.10;54.00;;;;;;6321367;28;19955;-71
2023/06/03 15:57:51;;;;;;;;;;;20.10;53.60;;;;;;6318927;28;19908;-71
2023/06/03 16:00:52;;;;;;;;;;;20.10;53.90;;;;;;6322254;28;20530;-71
2023/06/03 16:03:52;;;;;;;;;;;20.10;52.60;;;;;;6317658;28;20025;-70
2023/06/03 16:06:53;;;;;;;;;;;20.10;51.90;;;;;;6332689;28;19923;-70
2023/06/03 16:09:53;;;;;;;;;;;20.10;51.90;;;;;;6329136;28;19962;-71
2023/06/03 16:12:54;;;;;;;;;;;20.10;52.00;;;;;;6326827;28;20270;-71
2023/06/03 16:15:55;;;;;;;;;;;20.10;52.00;;;;;;6333982;28;19912;-71
2023/06/03 16:18:56;;;;;;;;;;;20.10;52.50;;;;;;6321198;28;19916;-71
2023/06/03 16:21:56;;;;;;;;;;;20.10;52.30;;;;;;6334124;28;20386;-71
2023/06/03 16:24:57;;;;;;;;;;;20.10;52.20;;;;;;6326732;28;19912;-70
2023/06/03 16:27:58;;;;;;;;;;;20.10;51.40;;;;;;6328180;28;19915;-71
2023/06/03 16:30:58;;;;;;;;;;;20.10;51.60;;;;;;6333699;28;19939;-71
2023/06/03 16:33:59;;;;;;;;;;;20.10;51.80;;;;;;6320744;28;20271;-72
2023/06/03 16:37:00;;;;;;;;;;;20.20;52.20;;;;;;6331972;28;19915;-72
2023/06/03 16:40:01;;;;;;;;;;;20.20;52.60;;;;;;6325437;28;20370;-71
2023/06/03 16:43:01;;;;;;;;;;;20.10;53.00;;;;;;6328441;28;19909;-71
2023/06/03 16:46:02;;;;;;;;;;;20.10;52.30;;;;;;6327087;28;19923;-71
2023/06/03 16:49:02;;;;;;;;;;;20.20;52.10;;;;;;6295423;28;19923;-71
2023/06/03 16:52:03;;;;;;;;;;;20.20;53.40;;;;;;6332424;28;19981;-71
2023/06/03 16:55:04;;;;;;;;;;;20.20;53.90;;;;;;6320439;28;19947;-71
2023/06/03 16:58:04;;;;;;;;;;;20.20;54.40;;;;;;6321281;28;19942;-71
2023/06/03 17:01:05;;;;;;;;;;;20.20;54.50;;;;;;6317533;28;19999;-71
2023/06/03 17:04:06;;;;;;;;;;;20.10;54.70;;;;;;6316533;28;20406;-71
2023/06/03 17:07:06;;;;;;;;;;;20.10;54.90;;;;;;6309688;28;19920;-71
2023/06/03 17:10:07;;;;;;;;;;;20.10;55.20;;;;;;6319956;28;19909;-71
2023/06/03 17:13:07;;;;;;;;;;;20.10;55.30;;;;;;6320620;28;19920;-71
2023/06/03 17:16:08;;;;;;;;;;;20.10;55.60;;;;;;6320844;28;19912;-71
2023/06/03 17:19:08;;;;;;;;;;;20.10;55.80;;;;;;6320557;28;20426;-71
2023/06/03 17:22:09;;;;;;;;;;;20.10;56.00;;;;;;6321330;28;19908;-71
2023/06/03 17:25:10;;;;;;;;;;;20.10;56.10;;;;;;6320550;28;20208;-71
2023/06/03 17:28:10;;;;;;;;;;;20.10;56.20;;;;;;6320617;28;20328;-71
2023/06/03 17:31:11;;;;;;;;;;;20.10;56.30;;;;;;6320503;28;20010;-71
2023/06/03 17:34:11;;;;;;;;;;;20.10;56.40;;;;;;6320567;28;19908;-71
2023/06/03 17:37:12;;;;;;;;;;;20.10;56.50;;;;;;6320322;28;19915;-71